sensor_id;sensor_type;location;lat;lon;timestamp;P1;durP1;ratioP1;P2;durP2;ratioP2
1507;SDS011;745;48.586;10.032;2024-03-02T00:01:09;39.47;;;20.77;;
1507;SDS011;745;48.586;10.032;2024-03-02T00:03:10;38.08;;;22.05;;
1507;SDS011;745;48.586;10.032;2024-03-02T00:05:20;41.78;;;21.65;;
1507;SDS011;745;48.586;10.032;2024-03-02T00:07:21;41.95;;;22.00;;
1507;SDS011;745;48.586;10.032;2024-03-02T00:09:22;43.40;;;21.33;;
1507;SDS011;745;48.586;10.032;2024-03-02T00:11:22;35.30;;;19.63;;
1507;SDS011;745;48.586;10.032;2024-03-02T00:13:23;33.00;;;20.70;;
1507;SDS011;745;48.586;10.032;2024-03-02T00:17:30;37.90;;;21.67;;
1507;SDS011;745;48.586;10.032;2024-03-02T00:19:30;32.40;;;18.83;;
1507;SDS011;745;48.586;10.032;2024-03-02T00:21:30;34.73;;;20.83;;
1507;SDS011;745;48.586;10.032;2024-03-02T00:23:31;29.00;;;19.57;;
1507;SDS011;745;48.586;10.032;2024-03-02T00:25:37;29.17;;;18.63;;
1507;SDS011;745;48.586;10.032;2024-03-02T00:27:40;26.90;;;19.03;;
1507;SDS011;745;48.586;10.032;2024-03-02T00:29:40;27.47;;;18.50;;
1507;SDS011;745;48.586;10.032;2024-03-02T00:31:42;29.50;;;20.13;;
1507;SDS011;745;48.586;10.032;2024-03-02T00:33:44;27.87;;;18.83;;
1507;SDS011;745;48.586;10.032;2024-03-02T00:35:45;34.00;;;19.67;;
1507;SDS011;745;48.586;10.032;2024-03-02T00:37:46;30.23;;;20.60;;
1507;SDS011;745;48.586;10.032;2024-03-02T00:39:48;36.13;;;21.10;;
1507;SDS011;745;48.586;10.032;2024-03-02T00:41:49;35.55;;;21.45;;
1507;SDS011;745;48.586;10.032;2024-03-02T00:43:52;31.90;;;20.13;;
1507;SDS011;745;48.586;10.032;2024-03-02T00:45:55;33.03;;;20.63;;
1507;SDS011;745;48.586;10.032;2024-03-02T00:47:55;29.80;;;20.13;;
1507;SDS011;745;48.586;10.032;2024-03-02T00:49:56;31.20;;;21.27;;
1507;SDS011;745;48.586;10.032;2024-03-02T00:51:56;34.87;;;21.87;;
1507;SDS011;745;48.586;10.032;2024-03-02T00:54:00;32.30;;;20.77;;
1507;SDS011;745;48.586;10.032;2024-03-02T00:56:03;37.05;;;21.60;;
1507;SDS011;745;48.586;10.032;2024-03-02T00:58:04;36.93;;;21.67;;
1507;SDS011;745;48.586;10.032;2024-03-02T01:00:05;32.17;;;20.60;;
1507;SDS011;745;48.586;10.032;2024-03-02T01:02:09;36.95;;;21.67;;
1507;SDS011;745;48.586;10.032;2024-03-02T01:04:10;32.47;;;20.60;;
1507;SDS011;745;48.586;10.032;2024-03-02T01:06:10;34.13;;;21.30;;
1507;SDS011;745;48.586;10.032;2024-03-02T01:08:11;34.73;;;21.67;;
1507;SDS011;745;48.586;10.032;2024-03-02T01:10:11;37.93;;;22.93;;
1507;SDS011;745;48.586;10.032;2024-03-02T01:12:11;35.90;;;21.40;;
1507;SDS011;745;48.586;10.032;2024-03-02T01:14:12;38.73;;;21.73;;
1507;SDS011;745;48.586;10.032;2024-03-02T01:16:12;40.07;;;22.83;;
1507;SDS011;745;48.586;10.032;2024-03-02T01:18:12;38.77;;;24.27;;
1507;SDS011;745;48.586;10.032;2024-03-02T01:20:13;38.20;;;21.73;;
1507;SDS011;745;48.586;10.032;2024-03-02T01:22:13;36.50;;;21.20;;
1507;SDS011;745;48.586;10.032;2024-03-02T01:24:14;39.50;;;23.17;;
1507;SDS011;745;48.586;10.032;2024-03-02T01:26:14;36.80;;;23.67;;
1507;SDS011;745;48.586;10.032;2024-03-02T01:28:14;34.10;;;21.50;;
1507;SDS011;745;48.586;10.032;2024-03-02T01:30:15;39.20;;;24.40;;
1507;SDS011;745;48.586;10.032;2024-03-02T01:32:15;40.80;;;24.03;;
1507;SDS011;745;48.586;10.032;2024-03-02T01:34:16;41.27;;;22.87;;
1507;SDS011;745;48.586;10.032;2024-03-02T01:36:16;33.43;;;20.40;;
1507;SDS011;745;48.586;10.032;2024-03-02T01:38:16;37.57;;;21.33;;
1507;SDS011;745;48.586;10.032;2024-03-02T01:40:17;34.30;;;21.70;;
1507;SDS011;745;48.586;10.032;2024-03-02T01:42:17;36.57;;;21.83;;
1507;SDS011;745;48.586;10.032;2024-03-02T01:44:17;37.90;;;22.43;;
1507;SDS011;745;48.586;10.032;2024-03-02T01:46:18;40.47;;;22.60;;
1507;SDS011;745;48.586;10.032;2024-03-02T01:48:18;38.30;;;23.13;;
1507;SDS011;745;48.586;10.032;2024-03-02T01:50:29;35.80;;;21.23;;
1507;SDS011;745;48.586;10.032;2024-03-02T01:52:31;37.95;;;22.85;;
1507;SDS011;745;48.586;10.032;2024-03-02T01:54:31;46.30;;;25.40;;
1507;SDS011;745;48.586;10.032;2024-03-02T01:56:31;35.90;;;21.50;;
1507;SDS011;745;48.586;10.032;2024-03-02T01:58:32;40.17;;;23.10;;
1507;SDS011;745;48.586;10.032;2024-03-02T02:00:32;41.67;;;23.20;;
1507;SDS011;745;48.586;10.032;2024-03-02T02:02:33;38.37;;;22.97;;
1507;SDS011;745;48.586;10.032;2024-03-02T02:04:33;39.70;;;23.00;;
1507;SDS011;745;48.586;10.032;2024-03-02T02:06:33;42.63;;;23.80;;
1507;SDS011;745;48.586;10.032;2024-03-02T02:08:34;38.27;;;22.50;;
1507;SDS011;745;48.586;10.032;2024-03-02T02:10:34;37.57;;;23.67;;
1507;SDS011;745;48.586;10.032;2024-03-02T02:12:34;44.53;;;24.63;;
1507;SDS011;745;48.586;10.032;2024-03-02T02:14:35;42.07;;;24.47;;
1507;SDS011;745;48.586;10.032;2024-03-02T02:16:35;44.67;;;24.27;;
1507;SDS011;745;48.586;10.032;2024-03-02T02:18:36;45.07;;;24.10;;
1507;SDS011;745;48.586;10.032;2024-03-02T02:20:36;38.10;;;22.53;;
1507;SDS011;745;48.586;10.032;2024-03-02T02:22:36;38.10;;;23.87;;
1507;SDS011;745;48.586;10.032;2024-03-02T02:24:40;44.63;;;24.97;;
1507;SDS011;745;48.586;10.032;2024-03-02T02:26:44;40.22;;;22.25;;
1507;SDS011;745;48.586;10.032;2024-03-02T02:28:44;45.00;;;24.87;;
1507;SDS011;745;48.586;10.032;2024-03-02T02:30:47;41.47;;;23.05;;
1507;SDS011;745;48.586;10.032;2024-03-02T02:32:47;42.27;;;26.13;;
1507;SDS011;745;48.586;10.032;2024-03-02T02:34:52;42.60;;;24.53;;
1507;SDS011;745;48.586;10.032;2024-03-02T02:36:52;44.05;;;24.77;;
1507;SDS011;745;48.586;10.032;2024-03-02T02:38:53;36.30;;;22.30;;
1507;SDS011;745;48.586;10.032;2024-03-02T02:40:53;40.40;;;23.90;;
1507;SDS011;745;48.586;10.032;2024-03-02T02:42:53;36.87;;;23.00;;
1507;SDS011;745;48.586;10.032;2024-03-02T02:44:54;40.53;;;23.73;;
1507;SDS011;745;48.586;10.032;2024-03-02T02:46:54;33.90;;;22.17;;
1507;SDS011;745;48.586;10.032;2024-03-02T02:48:54;37.53;;;21.83;;
1507;SDS011;745;48.586;10.032;2024-03-02T02:50:55;36.33;;;23.00;;
1507;SDS011;745;48.586;10.032;2024-03-02T02:52:55;38.43;;;23.37;;
1507;SDS011;745;48.586;10.032;2024-03-02T02:54:55;39.40;;;23.07;;
1507;SDS011;745;48.586;10.032;2024-03-02T02:56:56;36.33;;;21.63;;
1507;SDS011;745;48.586;10.032;2024-03-02T02:58:57;34.08;;;22.17;;
1507;SDS011;745;48.586;10.032;2024-03-02T03:00:57;32.67;;;21.53;;
1507;SDS011;745;48.586;10.032;2024-03-02T03:02:57;33.33;;;20.87;;
1507;SDS011;745;48.586;10.032;2024-03-02T03:04:58;34.70;;;23.20;;
1507;SDS011;745;48.586;10.032;2024-03-02T03:06:58;33.17;;;21.50;;
1507;SDS011;745;48.586;10.032;2024-03-02T03:08:58;39.30;;;23.33;;
1507;SDS011;745;48.586;10.032;2024-03-02T03:10:59;29.33;;;20.37;;
1507;SDS011;745;48.586;10.032;2024-03-02T03:12:59;33.30;;;21.50;;
1507;SDS011;745;48.586;10.032;2024-03-02T03:14:59;32.47;;;21.70;;
1507;SDS011;745;48.586;10.032;2024-03-02T03:17:00;34.20;;;22.20;;
1507;SDS011;745;48.586;10.032;2024-03-02T03:19:01;35.23;;;21.63;;
1507;SDS011;745;48.586;10.032;2024-03-02T03:21:01;32.10;;;20.20;;
1507;SDS011;745;48.586;10.032;2024-03-02T03:23:02;30.63;;;20.80;;
1507;SDS011;745;48.586;10.032;2024-03-02T03:25:04;30.52;;;19.40;;
1507;SDS011;745;48.586;10.032;2024-03-02T03:27:05;31.50;;;19.37;;
1507;SDS011;745;48.586;10.032;2024-03-02T03:29:05;26.73;;;17.90;;
1507;SDS011;745;48.586;10.032;2024-03-02T03:31:06;28.23;;;18.43;;
1507;SDS011;745;48.586;10.032;2024-03-02T03:33:07;26.93;;;17.77;;
1507;SDS011;745;48.586;10.032;2024-03-02T03:35:07;29.97;;;19.97;;
1507;SDS011;745;48.586;10.032;2024-03-02T03:37:08;27.23;;;17.73;;
1507;SDS011;745;48.586;10.032;2024-03-02T03:39:09;23.67;;;17.35;;
1507;SDS011;745;48.586;10.032;2024-03-02T03:41:10;25.83;;;17.73;;
1507;SDS011;745;48.586;10.032;2024-03-02T03:43:10;24.67;;;17.03;;
1507;SDS011;745;48.586;10.032;2024-03-02T03:45:11;25.77;;;17.50;;
1507;SDS011;745;48.586;10.032;2024-03-02T03:47:11;25.97;;;17.90;;
1507;SDS011;745;48.586;10.032;2024-03-02T03:49:12;21.40;;;16.20;;
1507;SDS011;745;48.586;10.032;2024-03-02T03:51:12;22.80;;;16.83;;
1507;SDS011;745;48.586;10.032;2024-03-02T03:53:12;25.60;;;17.60;;
1507;SDS011;745;48.586;10.032;2024-03-02T03:55:14;28.83;;;18.38;;
1507;SDS011;745;48.586;10.032;2024-03-02T03:57:14;25.37;;;16.50;;
1507;SDS011;745;48.586;10.032;2024-03-02T03:59:15;26.47;;;18.70;;
1507;SDS011;745;48.586;10.032;2024-03-02T04:01:15;24.07;;;17.20;;
1507;SDS011;745;48.586;10.032;2024-03-02T04:03:15;24.10;;;16.90;;
1507;SDS011;745;48.586;10.032;2024-03-02T04:05:16;25.10;;;18.30;;
1507;SDS011;745;48.586;10.032;2024-03-02T04:07:16;25.00;;;17.20;;
1507;SDS011;745;48.586;10.032;2024-03-02T04:09:16;24.30;;;17.40;;
1507;SDS011;745;48.586;10.032;2024-03-02T04:11:17;25.50;;;19.87;;
1507;SDS011;745;48.586;10.032;2024-03-02T04:13:17;25.67;;;18.47;;
1507;SDS011;745;48.586;10.032;2024-03-02T04:15:17;25.27;;;17.20;;
1507;SDS011;745;48.586;10.032;2024-03-02T04:17:18;24.40;;;16.67;;
1507;SDS011;745;48.586;10.032;2024-03-02T04:19:19;23.67;;;16.43;;
1507;SDS011;745;48.586;10.032;2024-03-02T04:21:19;19.07;;;14.20;;
1507;SDS011;745;48.586;10.032;2024-03-02T04:23:20;20.23;;;15.60;;
1507;SDS011;745;48.586;10.032;2024-03-02T04:25:20;18.53;;;14.80;;
1507;SDS011;745;48.586;10.032;2024-03-02T04:27:20;21.40;;;15.23;;
1507;SDS011;745;48.586;10.032;2024-03-02T04:29:21;18.80;;;15.00;;
1507;SDS011;745;48.586;10.032;2024-03-02T04:31:21;23.03;;;15.43;;
1507;SDS011;745;48.586;10.032;2024-03-02T04:33:22;20.87;;;15.77;;
1507;SDS011;745;48.586;10.032;2024-03-02T04:35:22;20.40;;;14.40;;
1507;SDS011;745;48.586;10.032;2024-03-02T04:37:22;20.77;;;14.77;;
1507;SDS011;745;48.586;10.032;2024-03-02T04:39:22;23.03;;;16.10;;
1507;SDS011;745;48.586;10.032;2024-03-02T04:41:23;23.77;;;16.40;;
1507;SDS011;745;48.586;10.032;2024-03-02T04:43:23;21.13;;;14.47;;
1507;SDS011;745;48.586;10.032;2024-03-02T04:45:23;22.67;;;16.83;;
1507;SDS011;745;48.586;10.032;2024-03-02T04:47:24;20.10;;;15.20;;
1507;SDS011;745;48.586;10.032;2024-03-02T04:49:24;22.93;;;16.77;;
1507;SDS011;745;48.586;10.032;2024-03-02T04:51:24;22.70;;;16.70;;
1507;SDS011;745;48.586;10.032;2024-03-02T04:53:25;21.97;;;15.50;;
1507;SDS011;745;48.586;10.032;2024-03-02T04:55:25;20.90;;;15.83;;
1507;SDS011;745;48.586;10.032;2024-03-02T04:57:25;24.80;;;16.93;;
1507;SDS011;745;48.586;10.032;2024-03-02T04:59:26;21.50;;;15.50;;
1507;SDS011;745;48.586;10.032;2024-03-02T05:01:26;22.40;;;16.80;;
1507;SDS011;745;48.586;10.032;2024-03-02T05:03:27;20.53;;;15.10;;
1507;SDS011;745;48.586;10.032;2024-03-02T05:05:27;24.47;;;15.80;;
1507;SDS011;745;48.586;10.032;2024-03-02T05:07:27;21.93;;;15.00;;
1507;SDS011;745;48.586;10.032;2024-03-02T05:09:28;21.10;;;15.10;;
1507;SDS011;745;48.586;10.032;2024-03-02T05:11:28;21.67;;;15.83;;
1507;SDS011;745;48.586;10.032;2024-03-02T05:13:39;21.70;;;15.52;;
1507;SDS011;745;48.586;10.032;2024-03-02T05:15:39;22.03;;;16.30;;
1507;SDS011;745;48.586;10.032;2024-03-02T05:17:40;19.17;;;14.55;;
1507;SDS011;745;48.586;10.032;2024-03-02T05:19:44;18.88;;;14.80;;
1507;SDS011;745;48.586;10.032;2024-03-02T05:21:45;20.07;;;14.60;;
1507;SDS011;745;48.586;10.032;2024-03-02T05:23:45;22.23;;;15.77;;
1507;SDS011;745;48.586;10.032;2024-03-02T05:25:45;20.40;;;15.17;;
1507;SDS011;745;48.586;10.032;2024-03-02T05:27:45;22.63;;;15.90;;
1507;SDS011;745;48.586;10.032;2024-03-02T05:29:46;20.87;;;15.33;;
1507;SDS011;745;48.586;10.032;2024-03-02T05:31:47;22.67;;;15.67;;
1507;SDS011;745;48.586;10.032;2024-03-02T05:33:48;20.35;;;15.05;;
1507;SDS011;745;48.586;10.032;2024-03-02T05:35:48;22.60;;;17.40;;
1507;SDS011;745;48.586;10.032;2024-03-02T05:37:50;21.10;;;15.85;;
1507;SDS011;745;48.586;10.032;2024-03-02T05:39:50;19.63;;;13.70;;
1507;SDS011;745;48.586;10.032;2024-03-02T05:41:50;24.47;;;17.73;;
1507;SDS011;745;48.586;10.032;2024-03-02T05:43:51;20.10;;;15.60;;
1507;SDS011;745;48.586;10.032;2024-03-02T05:45:51;22.23;;;16.03;;
1507;SDS011;745;48.586;10.032;2024-03-02T05:47:52;20.73;;;15.17;;
1507;SDS011;745;48.586;10.032;2024-03-02T05:49:52;21.67;;;14.90;;
1507;SDS011;745;48.586;10.032;2024-03-02T05:51:52;24.23;;;16.63;;
1507;SDS011;745;48.586;10.032;2024-03-02T05:53:53;19.43;;;13.80;;
1507;SDS011;745;48.586;10.032;2024-03-02T05:55:53;20.37;;;15.10;;
1507;SDS011;745;48.586;10.032;2024-03-02T05:57:55;20.85;;;15.73;;
1507;SDS011;745;48.586;10.032;2024-03-02T06:00:12;20.10;;;14.88;;
1507;SDS011;745;48.586;10.032;2024-03-02T06:02:13;21.60;;;16.33;;
1507;SDS011;745;48.586;10.032;2024-03-02T06:04:13;20.20;;;16.23;;
1507;SDS011;745;48.586;10.032;2024-03-02T06:06:14;22.07;;;15.27;;
1507;SDS011;745;48.586;10.032;2024-03-02T06:08:14;21.03;;;15.30;;
1507;SDS011;745;48.586;10.032;2024-03-02T06:10:15;20.63;;;15.43;;
1507;SDS011;745;48.586;10.032;2024-03-02T06:12:15;22.47;;;16.10;;
1507;SDS011;745;48.586;10.032;2024-03-02T06:14:15;21.13;;;15.67;;
1507;SDS011;745;48.586;10.032;2024-03-02T06:16:16;22.27;;;17.20;;
1507;SDS011;745;48.586;10.032;2024-03-02T06:18:16;18.97;;;14.00;;
1507;SDS011;745;48.586;10.032;2024-03-02T06:20:16;20.50;;;16.07;;
1507;SDS011;745;48.586;10.032;2024-03-02T06:22:17;20.80;;;15.50;;
1507;SDS011;745;48.586;10.032;2024-03-02T06:24:19;25.00;;;17.90;;
1507;SDS011;745;48.586;10.032;2024-03-02T06:26:19;21.80;;;16.80;;
1507;SDS011;745;48.586;10.032;2024-03-02T06:28:20;23.95;;;15.88;;
1507;SDS011;745;48.586;10.032;2024-03-02T06:30:20;23.37;;;16.83;;
1507;SDS011;745;48.586;10.032;2024-03-02T06:32:21;23.70;;;16.57;;
1507;SDS011;745;48.586;10.032;2024-03-02T06:34:21;22.90;;;16.90;;
1507;SDS011;745;48.586;10.032;2024-03-02T06:36:21;25.40;;;17.90;;
1507;SDS011;745;48.586;10.032;2024-03-02T06:38:21;24.20;;;16.73;;
1507;SDS011;745;48.586;10.032;2024-03-02T06:40:22;25.27;;;17.70;;
1507;SDS011;745;48.586;10.032;2024-03-02T06:42:22;23.50;;;17.50;;
1507;SDS011;745;48.586;10.032;2024-03-02T06:44:24;24.15;;;17.85;;
1507;SDS011;745;48.586;10.032;2024-03-02T06:46:24;24.30;;;17.50;;
1507;SDS011;745;48.586;10.032;2024-03-02T06:48:25;22.95;;;16.20;;
1507;SDS011;745;48.586;10.032;2024-03-02T06:50:25;23.03;;;16.87;;
1507;SDS011;745;48.586;10.032;2024-03-02T06:52:26;23.65;;;17.38;;
1507;SDS011;745;48.586;10.032;2024-03-02T06:54:27;20.80;;;16.80;;
1507;SDS011;745;48.586;10.032;2024-03-02T06:56:27;23.97;;;17.53;;
1507;SDS011;745;48.586;10.032;2024-03-02T06:58:27;23.77;;;17.40;;
1507;SDS011;745;48.586;10.032;2024-03-02T07:00:28;21.80;;;17.10;;
1507;SDS011;745;48.586;10.032;2024-03-02T07:02:29;24.05;;;18.27;;
1507;SDS011;745;48.586;10.032;2024-03-02T07:04:29;25.10;;;18.13;;
1507;SDS011;745;48.586;10.032;2024-03-02T07:06:29;22.33;;;17.10;;
1507;SDS011;745;48.586;10.032;2024-03-02T07:08:29;23.30;;;17.43;;
1507;SDS011;745;48.586;10.032;2024-03-02T07:10:30;25.03;;;18.33;;
1507;SDS011;745;48.586;10.032;2024-03-02T07:12:30;25.57;;;17.90;;
1507;SDS011;745;48.586;10.032;2024-03-02T07:14:31;24.37;;;19.00;;
1507;SDS011;745;48.586;10.032;2024-03-02T07:16:57;25.15;;;18.27;;
1507;SDS011;745;48.586;10.032;2024-03-02T07:18:58;25.80;;;19.00;;
1507;SDS011;745;48.586;10.032;2024-03-02T07:20:59;27.90;;;20.13;;
1507;SDS011;745;48.586;10.032;2024-03-02T07:23:00;29.88;;;20.50;;
1507;SDS011;745;48.586;10.032;2024-03-02T07:25:01;28.87;;;19.90;;
1507;SDS011;745;48.586;10.032;2024-03-02T07:27:02;27.33;;;19.17;;
1507;SDS011;745;48.586;10.032;2024-03-02T07:29:03;26.33;;;18.08;;
1507;SDS011;745;48.586;10.032;2024-03-02T07:31:04;29.33;;;20.10;;
1507;SDS011;745;48.586;10.032;2024-03-02T07:33:04;28.30;;;19.50;;
1507;SDS011;745;48.586;10.032;2024-03-02T07:35:05;28.30;;;20.00;;
1507;SDS011;745;48.586;10.032;2024-03-02T07:37:06;28.93;;;19.70;;
1507;SDS011;745;48.586;10.032;2024-03-02T07:39:06;24.47;;;16.47;;
1507;SDS011;745;48.586;10.032;2024-03-02T07:41:08;30.77;;;19.00;;
1507;SDS011;745;48.586;10.032;2024-03-02T07:43:09;29.75;;;19.27;;
1507;SDS011;745;48.586;10.032;2024-03-02T07:45:09;28.50;;;18.90;;
1507;SDS011;745;48.586;10.032;2024-03-02T07:47:09;25.87;;;17.50;;
1507;SDS011;745;48.586;10.032;2024-03-02T07:49:10;26.97;;;18.20;;
1507;SDS011;745;48.586;10.032;2024-03-02T07:51:10;27.03;;;18.33;;
1507;SDS011;745;48.586;10.032;2024-03-02T07:53:10;30.77;;;20.50;;
1507;SDS011;745;48.586;10.032;2024-03-02T07:55:11;34.43;;;21.03;;
1507;SDS011;745;48.586;10.032;2024-03-02T07:57:11;27.30;;;19.07;;
1507;SDS011;745;48.586;10.032;2024-03-02T07:59:12;27.30;;;18.43;;
1507;SDS011;745;48.586;10.032;2024-03-02T08:01:12;29.57;;;18.97;;
1507;SDS011;745;48.586;10.032;2024-03-02T08:03:13;30.70;;;20.40;;
1507;SDS011;745;48.586;10.032;2024-03-02T08:05:14;28.90;;;20.65;;
1507;SDS011;745;48.586;10.032;2024-03-02T08:07:14;28.37;;;19.37;;
1507;SDS011;745;48.586;10.032;2024-03-02T08:09:14;29.47;;;20.63;;
1507;SDS011;745;48.586;10.032;2024-03-02T08:11:15;23.07;;;17.10;;
1507;SDS011;745;48.586;10.032;2024-03-02T08:13:15;27.27;;;19.83;;
1507;SDS011;745;48.586;10.032;2024-03-02T08:15:15;73.77;;;42.93;;
1507;SDS011;745;48.586;10.032;2024-03-02T08:17:16;50.10;;;32.40;;
1507;SDS011;745;48.586;10.032;2024-03-02T08:19:16;37.97;;;23.07;;
1507;SDS011;745;48.586;10.032;2024-03-02T08:21:17;76.87;;;27.90;;
1507;SDS011;745;48.586;10.032;2024-03-02T08:23:17;41.93;;;24.87;;
1507;SDS011;745;48.586;10.032;2024-03-02T08:25:18;34.50;;;21.13;;
1507;SDS011;745;48.586;10.032;2024-03-02T08:27:18;38.30;;;24.10;;
1507;SDS011;745;48.586;10.032;2024-03-02T08:29:18;35.43;;;22.03;;
1507;SDS011;745;48.586;10.032;2024-03-02T08:31:19;50.40;;;32.73;;
1507;SDS011;745;48.586;10.032;2024-03-02T08:33:19;43.27;;;28.80;;
1507;SDS011;745;48.586;10.032;2024-03-02T08:35:19;30.60;;;20.17;;
1507;SDS011;745;48.586;10.032;2024-03-02T08:37:22;25.90;;;17.48;;
1507;SDS011;745;48.586;10.032;2024-03-02T08:39:22;26.80;;;18.53;;
1507;SDS011;745;48.586;10.032;2024-03-02T08:41:23;27.30;;;19.37;;
1507;SDS011;745;48.586;10.032;2024-03-02T08:43:23;26.07;;;18.00;;
1507;SDS011;745;48.586;10.032;2024-03-02T08:45:24;26.83;;;18.50;;
1507;SDS011;745;48.586;10.032;2024-03-02T08:47:24;26.90;;;19.17;;
1507;SDS011;745;48.586;10.032;2024-03-02T08:49:24;29.40;;;19.37;;
1507;SDS011;745;48.586;10.032;2024-03-02T08:51:25;25.50;;;18.80;;
1507;SDS011;745;48.586;10.032;2024-03-02T08:53:25;23.70;;;16.83;;
1507;SDS011;745;48.586;10.032;2024-03-02T08:55:26;23.13;;;16.83;;
1507;SDS011;745;48.586;10.032;2024-03-02T08:57:26;22.00;;;15.90;;
1507;SDS011;745;48.586;10.032;2024-03-02T08:59:27;24.53;;;18.10;;
1507;SDS011;745;48.586;10.032;2024-03-02T09:01:27;27.90;;;18.53;;
1507;SDS011;745;48.586;10.032;2024-03-02T09:03:28;25.73;;;17.53;;
1507;SDS011;745;48.586;10.032;2024-03-02T09:05:28;23.50;;;17.03;;
1507;SDS011;745;48.586;10.032;2024-03-02T09:07:28;25.77;;;18.50;;
1507;SDS011;745;48.586;10.032;2024-03-02T09:09:29;26.40;;;17.70;;
1507;SDS011;745;48.586;10.032;2024-03-02T09:11:31;29.02;;;18.80;;
1507;SDS011;745;48.586;10.032;2024-03-02T09:13:32;29.47;;;19.63;;
1507;SDS011;745;48.586;10.032;2024-03-02T09:15:33;34.37;;;21.27;;
1507;SDS011;745;48.586;10.032;2024-03-02T09:17:37;28.60;;;18.63;;
1507;SDS011;745;48.586;10.032;2024-03-02T09:19:39;30.67;;;20.10;;
1507;SDS011;745;48.586;10.032;2024-03-02T09:21:39;27.15;;;17.25;;
1507;SDS011;745;48.586;10.032;2024-03-02T09:23:42;23.40;;;16.58;;
1507;SDS011;745;48.586;10.032;2024-03-02T09:25:44;22.75;;;16.17;;
1507;SDS011;745;48.586;10.032;2024-03-02T09:27:44;23.40;;;16.50;;
1507;SDS011;745;48.586;10.032;2024-03-02T09:29:44;21.73;;;16.37;;
1507;SDS011;745;48.586;10.032;2024-03-02T09:31:45;18.73;;;14.10;;
1507;SDS011;745;48.586;10.032;2024-03-02T09:33:45;21.67;;;14.20;;
1507;SDS011;745;48.586;10.032;2024-03-02T09:35:45;22.37;;;15.07;;
1507;SDS011;745;48.586;10.032;2024-03-02T09:37:46;19.50;;;13.73;;
1507;SDS011;745;48.586;10.032;2024-03-02T09:39:47;23.00;;;15.18;;
1507;SDS011;745;48.586;10.032;2024-03-02T09:41:48;23.73;;;16.47;;
1507;SDS011;745;48.586;10.032;2024-03-02T09:43:48;23.67;;;17.23;;
1507;SDS011;745;48.586;10.032;2024-03-02T09:45:48;21.80;;;15.13;;
1507;SDS011;745;48.586;10.032;2024-03-02T09:47:51;21.95;;;15.35;;
1507;SDS011;745;48.586;10.032;2024-03-02T09:49:51;21.40;;;15.67;;
1507;SDS011;745;48.586;10.032;2024-03-02T09:51:51;23.77;;;17.97;;
1507;SDS011;745;48.586;10.032;2024-03-02T09:53:52;19.87;;;14.30;;
1507;SDS011;745;48.586;10.032;2024-03-02T09:55:53;19.17;;;14.18;;
1507;SDS011;745;48.586;10.032;2024-03-02T09:57:53;16.73;;;13.43;;
1507;SDS011;745;48.586;10.032;2024-03-02T09:59:54;17.30;;;12.40;;
1507;SDS011;745;48.586;10.032;2024-03-02T10:02:01;17.10;;;13.47;;
1507;SDS011;745;48.586;10.032;2024-03-02T10:04:02;20.42;;;13.77;;
1507;SDS011;745;48.586;10.032;2024-03-02T10:08:24;18.02;;;13.10;;
1507;SDS011;745;48.586;10.032;2024-03-02T10:10:26;19.90;;;13.35;;
1507;SDS011;745;48.586;10.032;2024-03-02T10:12:34;18.83;;;13.40;;
1507;SDS011;745;48.586;10.032;2024-03-02T10:14:35;17.60;;;13.20;;
1507;SDS011;745;48.586;10.032;2024-03-02T10:16:36;18.13;;;13.60;;
1507;SDS011;745;48.586;10.032;2024-03-02T10:18:36;20.20;;;14.57;;
1507;SDS011;745;48.586;10.032;2024-03-02T10:20:37;18.00;;;13.47;;
1507;SDS011;745;48.586;10.032;2024-03-02T10:22:38;18.33;;;13.70;;
1507;SDS011;745;48.586;10.032;2024-03-02T10:26:40;17.08;;;13.20;;
1507;SDS011;745;48.586;10.032;2024-03-02T10:28:48;17.23;;;12.98;;
1507;SDS011;745;48.586;10.032;2024-03-02T10:30:48;19.80;;;14.68;;
1507;SDS011;745;48.586;10.032;2024-03-02T10:32:53;17.90;;;14.25;;
1507;SDS011;745;48.586;10.032;2024-03-02T10:34:56;17.27;;;12.38;;
1507;SDS011;745;48.586;10.032;2024-03-02T10:36:57;22.40;;;14.75;;
1507;SDS011;745;48.586;10.032;2024-03-02T10:38:58;22.17;;;15.07;;
1507;SDS011;745;48.586;10.032;2024-03-02T10:40:59;18.70;;;13.85;;
1507;SDS011;745;48.586;10.032;2024-03-02T10:43:01;18.43;;;13.60;;
1507;SDS011;745;48.586;10.032;2024-03-02T10:45:03;20.90;;;14.88;;
1507;SDS011;745;48.586;10.032;2024-03-02T10:47:04;24.52;;;15.95;;
1507;SDS011;745;48.586;10.032;2024-03-02T10:49:05;20.20;;;14.50;;
1507;SDS011;745;48.586;10.032;2024-03-02T10:51:06;20.90;;;14.60;;
1507;SDS011;745;48.586;10.032;2024-03-02T10:53:06;19.73;;;13.43;;
1507;SDS011;745;48.586;10.032;2024-03-02T10:55:07;18.60;;;13.10;;
1507;SDS011;745;48.586;10.032;2024-03-02T10:57:09;22.27;;;15.13;;
1507;SDS011;745;48.586;10.032;2024-03-02T11:01:26;20.45;;;15.85;;
1507;SDS011;745;48.586;10.032;2024-03-02T11:03:29;19.00;;;14.73;;
1507;SDS011;745;48.586;10.032;2024-03-02T11:05:31;19.63;;;14.90;;
1507;SDS011;745;48.586;10.032;2024-03-02T11:07:34;18.95;;;14.18;;
1507;SDS011;745;48.586;10.032;2024-03-02T11:09:37;17.73;;;12.73;;
1507;SDS011;745;48.586;10.032;2024-03-02T11:11:42;17.02;;;13.75;;
1507;SDS011;745;48.586;10.032;2024-03-02T11:13:46;17.75;;;13.27;;
1507;SDS011;745;48.586;10.032;2024-03-02T11:15:51;17.02;;;14.25;;
1507;SDS011;745;48.586;10.032;2024-03-02T11:17:54;15.85;;;13.27;;
1507;SDS011;745;48.586;10.032;2024-03-02T11:19:55;17.73;;;13.57;;
1507;SDS011;745;48.586;10.032;2024-03-02T11:21:56;17.47;;;13.70;;
1507;SDS011;745;48.586;10.032;2024-03-02T11:23:57;17.93;;;13.70;;
1507;SDS011;745;48.586;10.032;2024-03-02T11:26:42;19.13;;;14.30;;
1507;SDS011;745;48.586;10.032;2024-03-02T11:28:19;16.55;;;12.77;;
1507;SDS011;745;48.586;10.032;2024-03-02T11:32:37;14.07;;;11.05;;
1507;SDS011;745;48.586;10.032;2024-03-02T11:34:38;16.30;;;12.30;;
1507;SDS011;745;48.586;10.032;2024-03-02T11:36:39;15.98;;;12.68;;
1507;SDS011;745;48.586;10.032;2024-03-02T11:38:39;15.77;;;12.53;;
1507;SDS011;745;48.586;10.032;2024-03-02T11:40:43;15.48;;;11.52;;
1507;SDS011;745;48.586;10.032;2024-03-02T11:42:43;13.43;;;10.50;;
1507;SDS011;745;48.586;10.032;2024-03-02T11:44:47;13.20;;;9.70;;
1507;SDS011;745;48.586;10.032;2024-03-02T11:46:52;10.63;;;9.50;;
1507;SDS011;745;48.586;10.032;2024-03-02T11:48:53;11.65;;;9.65;;
1507;SDS011;745;48.586;10.032;2024-03-02T11:50:53;9.87;;;8.20;;
1507;SDS011;745;48.586;10.032;2024-03-02T11:52:58;9.95;;;7.40;;
1507;SDS011;745;48.586;10.032;2024-03-02T11:54:58;7.43;;;6.63;;
1507;SDS011;745;48.586;10.032;2024-03-02T11:57:01;7.38;;;6.45;;
1507;SDS011;745;48.586;10.032;2024-03-02T11:59:02;10.05;;;7.82;;
1507;SDS011;745;48.586;10.032;2024-03-02T12:01:02;8.17;;;6.83;;
1507;SDS011;745;48.586;10.032;2024-03-02T12:03:08;9.90;;;8.13;;
1507;SDS011;745;48.586;10.032;2024-03-02T12:05:09;8.55;;;7.57;;
1507;SDS011;745;48.586;10.032;2024-03-02T12:07:10;7.80;;;6.73;;
1507;SDS011;745;48.586;10.032;2024-03-02T12:09:11;10.85;;;8.25;;
1507;SDS011;745;48.586;10.032;2024-03-02T12:11:13;7.93;;;7.10;;
1507;SDS011;745;48.586;10.032;2024-03-02T12:13:14;10.20;;;7.78;;
1507;SDS011;745;48.586;10.032;2024-03-02T12:15:14;10.53;;;6.67;;
1507;SDS011;745;48.586;10.032;2024-03-02T12:17:15;9.90;;;7.90;;
1507;SDS011;745;48.586;10.032;2024-03-02T12:19:15;12.43;;;8.80;;
1507;SDS011;745;48.586;10.032;2024-03-02T12:21:17;9.60;;;7.90;;